Bluebell, Utah
Current Conditions -  °F | °C
As of 7:53 AM on Thursday 30 Oct 2014 (Local Time) from KVEL Reporting Station
Clear Clear  
Wind Chill: 31°   Ceiling: Unl
Heat Index: 31°   Visibility: 10mi
Dew Point: 23°   Wind: 3mph
Humidity: 72%   Direction: 300°WNW
Pressure: 30.38"   Gusts: NA
Location:  40.36°N, 110.22°W
Report Text: KVEL 301353Z AUTO 30003KT 10SM CLR M01/M05 A3038 RMK AO2 SLP292 T10061050
Loading
Personal Weather Stations






























Interactive Weather Map
Tropical Storm Tracking
New forecast layout! Learn more

10-Day Weather Forecast

Advertisements
Track Severe Weather on mobile